Time;durP1;ratioP1;P1;durP2;ratioP2;P2;SDS_P1;SDS_P2;PMS_P1;PMS_P2;Temp;Humidity;BMP_temperature;BMP_pressure;BME280_temperature;BME280_humidity;BME280_pressure;Samples;Min_cycle;Max_cycle;Signal;HPM_P1;HPM_P2
2021/12/10 00:01:13;;;;;;;3.45;2.75;;;19.60;46.80;;;;;;2262105;63;20305;-66
2021/12/10 00:03:47;;;;;;;4.45;3.05;;;19.70;46.80;;;;;;2262099;63;20167;-66
2021/12/10 00:06:26;;;;;;;3.90;2.70;;;19.60;46.80;;;;;;2262079;63;20223;-66
2021/12/10 00:08:55;;;;;;;4.60;2.75;;;19.60;46.80;;;;;;2262104;63;20639;-64
2021/12/10 00:11:36;;;;;;;4.32;3.10;;;19.60;46.80;;;;;;2261991;63;20172;-66
2021/12/10 00:14:04;;;;;;;4.53;2.83;;;19.60;46.80;;;;;;2262073;63;20190;-64
2021/12/10 00:16:30;;;;;;;4.10;2.92;;;19.60;46.80;;;;;;2262050;63;20768;-65
2021/12/10 00:19:10;;;;;;;3.75;3.03;;;19.60;46.80;;;;;;2262072;63;20243;-64
2021/12/10 00:21:36;;;;;;;3.78;2.70;;;19.60;46.90;;;;;;2261968;63;20229;-64
2021/12/10 00:24:03;;;;;;;3.88;2.88;;;19.50;46.80;;;;;;2261965;63;20201;-64
2021/12/10 00:26:29;;;;;;;4.57;2.92;;;19.50;46.80;;;;;;2261966;63;20248;-64
2021/12/10 00:29:01;;;;;;;4.30;2.63;;;19.60;46.90;;;;;;2261997;63;20558;-64
2021/12/10 00:31:45;;;;;;;5.10;2.90;;;19.50;46.80;;;;;;2261819;63;20287;-64
2021/12/10 00:34:27;;;;;;;5.05;2.78;;;19.50;46.80;;;;;;2261998;63;20278;-64
2021/12/10 00:36:57;;;;;;;4.68;3.20;;;19.50;46.80;;;;;;2261971;63;20171;-64
2021/12/10 00:39:28;;;;;;;4.25;3.10;;;19.50;46.90;;;;;;2261757;63;20337;-64
2021/12/10 00:41:57;;;;;;;3.90;2.90;;;19.50;46.80;;;;;;2261912;63;20236;-64
2021/12/10 00:44:22;;;;;;;4.03;2.58;;;19.40;46.80;;;;;;2261889;63;20179;-64
2021/12/10 00:46:49;;;;;;;4.60;3.03;;;19.40;46.80;;;;;;2261843;63;20184;-64
2021/12/10 00:49:15;;;;;;;5.90;3.72;;;19.50;46.80;;;;;;2261907;63;20208;-64
2021/12/10 00:51:41;;;;;;;4.47;2.80;;;19.40;46.80;;;;;;2261821;63;20538;-64
2021/12/10 00:54:09;;;;;;;5.38;2.83;;;19.40;46.80;;;;;;2261628;63;20218;-64
2021/12/10 00:56:36;;;;;;;4.32;2.92;;;19.40;46.80;;;;;;2261902;63;20758;-64
2021/12/10 00:59:03;;;;;;;3.78;3.13;;;19.40;46.80;;;;;;2263165;63;20360;-64
2021/12/10 01:01:31;;;;;;;3.67;2.80;;;19.40;46.80;;;;;;2263090;63;20167;-64
2021/12/10 01:04:07;;;;;;;4.05;2.95;;;19.40;46.80;;;;;;2263103;63;20719;-64
2021/12/10 01:06:34;;;;;;;5.75;3.00;;;19.40;46.80;;;;;;2263112;63;20167;-64
2021/12/10 01:09:09;;;;;;;4.68;3.17;;;19.40;46.80;;;;;;2263046;63;20196;-64
2021/12/10 01:11:40;;;;;;;3.53;2.83;;;19.40;46.90;;;;;;2262960;63;20216;-64
2021/12/10 01:14:21;;;;;;;3.55;2.88;;;19.40;46.90;;;;;;2263066;63;20219;-64
2021/12/10 01:25:13;;;;;;;5.45;3.40;;;19.30;46.80;;;;;;2262968;63;20602;-64
2021/12/10 01:27:42;;;;;;;3.83;2.55;;;19.30;47.50;;;;;;2263002;63;20287;-64
2021/12/10 01:30:16;;;;;;;5.38;3.75;;;19.30;46.90;;;;;;2262958;63;20168;-64
2021/12/10 01:33:08;;;;;;;5.60;3.42;;;19.30;46.80;;;;;;2262984;63;20574;-64
2021/12/10 01:35:40;;;;;;;5.03;2.97;;;19.30;46.80;;;;;;2262962;63;20192;-65
2021/12/10 01:38:07;;;;;;;7.05;3.20;;;19.30;46.80;;;;;;2262890;63;20257;-64
2021/12/10 01:40:35;;;;;;;3.80;3.05;;;19.30;46.80;;;;;;2262844;63;20315;-65
2021/12/10 01:43:08;;;;;;;5.57;2.67;;;19.20;46.70;;;;;;2262944;63;20176;-66
2021/12/10 01:45:45;;;;;;;4.82;3.28;;;19.30;46.80;;;;;;2262922;63;20235;-65
2021/12/10 01:48:16;;;;;;;4.70;2.95;;;19.30;46.80;;;;;;2262945;63;20168;-65
2021/12/10 01:50:42;;;;;;;4.97;3.00;;;19.30;46.80;;;;;;2262811;63;20203;-65
2021/12/10 01:53:11;;;;;;;4.18;2.83;;;19.30;46.80;;;;;;2262815;63;20186;-65
2021/12/10 01:55:40;;;;;;;5.22;3.15;;;19.30;46.80;;;;;;2262695;63;20275;-64
2021/12/10 01:58:09;;;;;;;5.10;3.47;;;19.20;46.80;;;;;;2262825;63;20211;-65
2021/12/10 02:00:38;;;;;;;4.55;2.90;;;19.20;46.80;;;;;;2262847;63;20227;-64
2021/12/10 02:03:05;;;;;;;3.95;2.90;;;19.20;46.80;;;;;;2262761;63;20273;-64
2021/12/10 02:05:31;;;;;;;4.80;2.95;;;19.20;46.80;;;;;;2262821;63;20244;-64
2021/12/10 02:07:58;;;;;;;3.42;2.80;;;19.20;46.80;;;;;;2262561;63;20192;-64
2021/12/10 02:10:26;;;;;;;5.45;3.42;;;19.20;46.80;;;;;;2262627;63;20722;-64
2021/12/10 02:12:52;;;;;;;3.80;2.97;;;19.20;46.80;;;;;;2262706;63;20184;-64
2021/12/10 02:15:21;;;;;;;4.95;3.60;;;19.20;46.80;;;;;;2262740;63;20148;-64
2021/12/10 02:17:49;;;;;;;4.65;2.83;;;19.20;46.80;;;;;;2262720;63;20176;-64
2021/12/10 02:20:20;;;;;;;3.58;3.17;;;19.20;46.70;;;;;;2262684;63;20171;-64
2021/12/10 02:22:48;;;;;;;4.68;3.22;;;19.20;46.80;;;;;;2262641;63;20216;-64
2021/12/10 02:25:16;;;;;;;4.32;3.10;;;19.10;46.70;;;;;;2262734;63;20176;-64
2021/12/10 02:27:42;;;;;;;4.55;3.03;;;19.20;46.80;;;;;;2262702;63;20309;-64
2021/12/10 02:30:12;;;;;;;4.13;3.08;;;19.10;46.70;;;;;;2262570;63;20185;-63
2021/12/10 02:32:38;;;;;;;5.30;3.25;;;19.20;46.80;;;;;;2262587;63;20189;-63
2021/12/10 02:35:06;;;;;;;5.88;3.22;;;19.10;46.70;;;;;;2262648;63;20794;-65
2021/12/10 02:37:34;;;;;;;5.10;3.40;;;19.10;46.70;;;;;;2262599;63;20348;-63
2021/12/10 02:40:00;;;;;;;4.82;3.05;;;19.10;46.70;;;;;;2262447;63;20160;-63
2021/12/10 02:42:26;;;;;;;4.60;3.35;;;19.10;46.70;;;;;;2262571;63;20293;-64
2021/12/10 02:44:52;;;;;;;4.32;3.10;;;19.10;46.70;;;;;;2262571;63;20259;-64
2021/12/10 02:47:20;;;;;;;5.60;3.08;;;19.10;46.70;;;;;;2262583;63;20180;-65
2021/12/10 02:49:46;;;;;;;5.40;3.30;;;19.10;46.70;;;;;;2262509;63;20372;-64
2021/12/10 02:52:14;;;;;;;4.28;3.15;;;19.10;46.70;;;;;;2262515;63;20189;-65
2021/12/10 02:54:42;;;;;;;6.32;3.40;;;19.10;46.70;;;;;;2262383;63;20172;-64
2021/12/10 02:57:15;;;;;;;3.88;2.92;;;19.10;46.70;;;;;;2262459;63;20172;-65
2021/12/10 02:59:41;;;;;;;4.43;3.25;;;19.10;46.70;;;;;;2262501;63;20164;-64
2021/12/10 03:02:13;;;;;;;4.93;3.30;;;19.10;46.70;;;;;;2262457;63;20559;-64
2021/12/10 03:04:39;;;;;;;5.45;3.45;;;19.10;46.70;;;;;;2262500;63;20210;-64
2021/12/10 03:07:13;;;;;;;5.30;3.28;;;19.10;46.70;;;;;;2262447;63;20164;-67
2021/12/10 03:09:41;;;;;;;4.03;2.85;;;19.10;46.70;;;;;;2262201;63;20397;-64
2021/12/10 03:12:11;;;;;;;4.57;3.30;;;19.10;46.70;;;;;;2262431;63;20189;-65
2021/12/10 03:14:39;;;;;;;5.00;3.00;;;19.00;46.70;;;;;;2262456;63;20164;-64
2021/12/10 03:17:10;;;;;;;5.40;2.83;;;19.10;46.70;;;;;;2262398;63;20176;-65
2021/12/10 03:19:37;;;;;;;4.75;3.40;;;19.10;46.70;;;;;;2262042;63;20233;-64
2021/12/10 03:22:05;;;;;;;4.75;3.05;;;19.00;46.60;;;;;;2262362;63;20184;-64
2021/12/10 03:24:31;;;;;;;4.38;2.90;;;19.10;46.80;;;;;;2262341;63;20172;-65
2021/12/10 03:27:02;;;;;;;4.22;3.40;;;19.00;46.60;;;;;;2262374;63;20189;-65
2021/12/10 03:29:30;;;;;;;5.03;3.05;;;19.10;46.70;;;;;;2262313;63;20208;-64
2021/12/10 03:31:59;;;;;;;4.50;3.22;;;19.00;46.60;;;;;;2262241;63;20854;-64
2021/12/10 03:34:25;;;;;;;5.13;3.20;;;19.00;46.60;;;;;;2262279;63;20726;-64
2021/12/10 03:36:52;;;;;;;5.13;3.33;;;19.00;46.60;;;;;;2262279;63;20156;-63
2021/12/10 03:39:23;;;;;;;4.68;3.58;;;19.00;46.60;;;;;;2262112;63;20156;-64
2021/12/10 03:41:51;;;;;;;3.85;3.00;;;18.90;46.50;;;;;;2262213;63;20200;-64
2021/12/10 03:44:17;;;;;;;4.07;3.08;;;19.00;46.90;;;;;;2262252;63;20302;-64
2021/12/10 03:46:44;;;;;;;4.35;2.85;;;19.00;46.60;;;;;;2262217;63;20294;-64
2021/12/10 03:49:10;;;;;;;5.05;3.25;;;19.00;46.60;;;;;;2262534;63;20176;-63
2021/12/10 03:51:37;;;;;;;4.53;3.22;;;19.00;47.20;;;;;;2262149;63;20207;-64
2021/12/10 03:54:05;;;;;;;5.43;3.50;;;19.00;46.60;;;;;;2262094;63;20168;-64
2021/12/10 03:56:33;;;;;;;3.70;3.22;;;19.00;46.60;;;;;;2262180;63;20279;-63
2021/12/10 03:59:01;;;;;;;4.80;2.85;;;19.00;46.60;;;;;;2262138;63;20211;-63
2021/12/10 04:01:31;;;;;;;5.07;3.30;;;19.00;46.60;;;;;;2262137;63;20313;-64
2021/12/10 04:04:01;;;;;;;4.45;2.80;;;18.90;46.50;;;;;;2262098;63;20188;-64
2021/12/10 04:06:28;;;;;;;5.18;3.53;;;19.00;46.60;;;;;;2262130;63;20168;-64
2021/12/10 04:08:55;;;;;;;4.30;3.28;;;19.00;46.50;;;;;;2262008;63;20172;-65
2021/12/10 04:11:22;;;;;;;5.88;3.35;;;18.90;46.50;;;;;;2261933;63;20204;-65
2021/12/10 04:13:50;;;;;;;4.88;3.03;;;19.00;46.50;;;;;;2262113;63;20254;-65
2021/12/10 04:16:19;;;;;;;4.40;3.22;;;18.90;46.50;;;;;;2262041;63;20648;-65
2021/12/10 04:18:46;;;;;;;3.63;2.85;;;18.90;46.50;;;;;;2262022;63;20595;-66
2021/12/10 04:21:13;;;;;;;3.80;2.70;;;18.90;46.50;;;;;;2262004;63;20277;-65
2021/12/10 04:23:41;;;;;;;3.75;2.78;;;18.90;46.50;;;;;;2262007;63;20185;-66
2021/12/10 04:26:12;;;;;;;4.65;3.35;;;18.90;46.50;;;;;;2261964;63;20646;-66
2021/12/10 04:28:39;;;;;;;5.60;3.25;;;18.90;46.50;;;;;;2261986;63;20237;-65
2021/12/10 04:31:05;;;;;;;5.80;3.20;;;18.90;46.40;;;;;;2261910;63;20183;-65
2021/12/10 04:33:31;;;;;;;4.63;3.42;;;18.90;46.40;;;;;;2261921;63;20219;-65
2021/12/10 04:36:00;;;;;;;4.93;3.40;;;18.90;46.40;;;;;;2261932;63;20682;-65
2021/12/10 04:38:28;;;;;;;5.75;2.90;;;18.90;46.40;;;;;;2261857;63;20175;-65
2021/12/10 04:41:00;;;;;;;4.63;3.13;;;18.90;46.40;;;;;;2261837;63;20180;-65
2021/12/10 04:43:27;;;;;;;4.68;3.33;;;18.90;46.40;;;;;;2261882;63;20368;-65
2021/12/10 04:45:55;;;;;;;4.45;3.03;;;18.90;46.40;;;;;;2261951;63;20274;-65
2021/12/10 04:48:21;;;;;;;4.50;3.13;;;18.90;46.40;;;;;;2261896;63;20301;-65
2021/12/10 04:50:48;;;;;;;5.00;3.40;;;18.90;46.40;;;;;;2261725;63;20575;-65
2021/12/10 04:53:15;;;;;;;4.00;3.10;;;18.90;46.40;;;;;;2261820;63;20271;-65
2021/12/10 04:55:41;;;;;;;5.00;3.35;;;18.80;46.40;;;;;;2261757;63;20212;-65
2021/12/10 04:58:08;;;;;;;4.88;3.30;;;18.90;46.40;;;;;;2261850;63;20164;-65
2021/12/10 05:00:38;;;;;;;5.15;3.03;;;18.90;46.40;;;;;;2261829;63;20172;-65
2021/12/10 05:03:05;;;;;;;5.60;3.13;;;18.70;46.30;;;;;;2261715;63;20291;-65
2021/12/10 05:05:32;;;;;;;3.83;3.28;;;18.90;46.40;;;;;;2261865;63;20175;-65
2021/12/10 05:07:58;;;;;;;4.32;3.35;;;18.90;46.40;;;;;;2261768;63;20180;-65
2021/12/10 05:10:25;;;;;;;6.03;3.55;;;18.90;46.40;;;;;;2261616;63;20594;-65
2021/12/10 05:12:50;;;;;;;5.40;3.53;;;18.80;46.30;;;;;;2261761;63;20160;-65
2021/12/10 05:15:21;;;;;;;4.00;3.03;;;18.90;46.40;;;;;;2261741;63;20769;-65
2021/12/10 05:17:49;;;;;;;4.28;3.10;;;18.80;46.30;;;;;;2261792;63;20194;-65
2021/12/10 05:20:20;;;;;;;5.28;3.08;;;18.80;47.00;;;;;;2261714;63;20190;-65
2021/12/10 05:22:48;;;;;;;4.65;3.15;;;18.80;46.30;;;;;;2261691;63;20236;-65
2021/12/10 05:25:15;;;;;;;4.13;3.30;;;18.80;46.40;;;;;;2261702;63;20168;-65
2021/12/10 05:27:41;;;;;;;6.15;3.67;;;18.90;46.40;;;;;;2261732;63;20168;-65
2021/12/10 05:30:11;;;;;;;4.30;3.45;;;18.80;46.40;;;;;;2261621;63;20778;-66
2021/12/10 05:32:37;;;;;;;4.00;3.10;;;18.90;46.40;;;;;;2261637;63;20172;-65
2021/12/10 05:35:05;;;;;;;4.82;3.60;;;18.90;46.30;;;;;;2261675;63;20152;-66
2021/12/10 05:37:35;;;;;;;5.57;3.22;;;19.00;46.30;;;;;;2261622;63;20196;-66
2021/12/10 05:40:03;;;;;;;5.43;3.30;;;19.00;46.20;;;;;;2261470;63;20333;-65
2021/12/10 05:42:30;;;;;;;4.50;3.08;;;19.10;46.10;;;;;;2261621;63;20285;-65
2021/12/10 05:44:56;;;;;;;4.57;2.90;;;19.20;46.00;;;;;;2262946;63;20244;-65
2021/12/10 05:47:22;;;;;;;4.13;3.15;;;19.20;45.90;;;;;;2262878;63;20164;-65
2021/12/10 05:49:48;;;;;;;4.97;3.40;;;19.20;45.90;;;;;;2262840;63;20236;-65
2021/12/10 05:52:15;;;;;;;5.30;3.50;;;19.30;45.90;;;;;;2262805;63;20156;-64
2021/12/10 05:54:43;;;;;;;3.85;3.13;;;19.30;45.80;;;;;;2262725;63;20189;-65
2021/12/10 05:57:10;;;;;;;4.90;2.83;;;19.40;45.80;;;;;;2262809;63;20189;-65
2021/12/10 05:59:37;;;;;;;3.88;3.33;;;19.40;45.70;;;;;;2262871;63;20215;-65
2021/12/10 06:02:04;;;;;;;3.65;2.80;;;19.40;45.80;;;;;;2262826;63;20353;-65
2021/12/10 06:04:30;;;;;;;3.45;2.50;;;19.60;45.60;;;;;;2262830;63;20171;-65
2021/12/10 06:06:57;;;;;;;4.57;3.10;;;19.60;45.50;;;;;;2262828;63;20155;-65
2021/12/10 06:09:24;;;;;;;3.30;2.65;;;19.80;45.50;;;;;;2262719;63;20452;-65
2021/12/10 06:11:50;;;;;;;3.60;3.00;;;19.90;45.40;;;;;;2262676;63;20168;-65
2021/12/10 06:14:16;;;;;;;4.88;2.92;;;19.90;45.20;;;;;;2262833;63;20207;-65
2021/12/10 06:16:43;;;;;;;3.75;2.53;;;20.10;45.20;;;;;;2262767;63;20206;-64
2021/12/10 06:19:09;;;;;;;4.07;2.92;;;20.10;45.00;;;;;;2262700;63;20182;-65
2021/12/10 06:21:36;;;;;;;4.70;3.33;;;20.20;44.90;;;;;;2262727;63;20742;-65
2021/12/10 06:24:04;;;;;;;3.53;2.70;;;20.20;44.80;;;;;;2262669;63;20164;-65
2021/12/10 06:26:30;;;;;;;3.58;2.33;;;20.30;44.80;;;;;;2262654;63;20171;-65
2021/12/10 06:28:57;;;;;;;3.63;2.35;;;20.30;44.70;;;;;;2262654;63;20637;-65
2021/12/10 06:31:24;;;;;;;3.03;2.33;;;20.40;44.70;;;;;;2262579;63;20315;-65
2021/12/10 06:33:52;;;;;;;4.38;2.65;;;20.30;44.60;;;;;;2262587;63;20286;-65
2021/12/10 06:36:22;;;;;;;3.80;2.50;;;20.40;44.60;;;;;;2262649;63;20185;-65
2021/12/10 06:38:49;;;;;;;3.20;2.30;;;20.40;44.50;;;;;;2262542;63;20164;-65
2021/12/10 06:41:15;;;;;;;4.70;2.63;;;20.40;44.60;;;;;;2262524;63;20192;-65
2021/12/10 06:43:44;;;;;;;3.13;2.50;;;20.40;44.50;;;;;;2262613;63;20184;-65
2021/12/10 06:46:11;;;;;;;4.05;2.60;;;20.40;44.50;;;;;;2262513;63;20202;-65
2021/12/10 06:48:38;;;;;;;4.15;2.53;;;20.40;44.50;;;;;;2262542;63;20220;-65
2021/12/10 06:51:11;;;;;;;3.53;2.50;;;20.40;44.40;;;;;;2262466;63;20247;-64
2021/12/10 06:53:41;;;;;;;3.70;2.53;;;20.40;44.40;;;;;;2262366;63;20301;-65
2021/12/10 06:56:07;;;;;;;3.42;2.67;;;20.40;44.40;;;;;;2262080;63;20315;-65
2021/12/10 06:58:34;;;;;;;3.97;2.58;;;20.40;44.40;;;;;;2262478;63;20575;-65
2021/12/10 07:01:21;;;;;;;3.10;2.33;;;20.40;44.30;;;;;;2262477;63;20188;-65
2021/12/10 07:03:48;;;;;;;3.53;2.50;;;20.50;44.30;;;;;;2262424;63;20341;-65
2021/12/10 07:06:15;;;;;;;2.95;2.15;;;20.50;44.40;;;;;;2262520;63;20184;-65
2021/12/10 07:08:43;;;;;;;3.90;2.38;;;20.40;44.30;;;;;;2262384;63;20212;-64
2021/12/10 07:11:11;;;;;;;3.03;2.33;;;20.40;44.90;;;;;;2262324;63;20238;-65
2021/12/10 07:13:39;;;;;;;4.30;2.53;;;20.40;44.30;;;;;;2262440;63;20233;-65
2021/12/10 07:16:06;;;;;;;4.82;2.92;;;20.40;44.30;;;;;;2262409;63;20168;-66
2021/12/10 07:18:33;;;;;;;6.38;2.75;;;20.40;44.40;;;;;;2262405;63;20197;-65
2021/12/10 07:20:59;;;;;;;3.58;2.38;;;20.30;44.30;;;;;;2262384;63;20305;-65
2021/12/10 07:23:25;;;;;;;3.45;2.80;;;20.40;44.40;;;;;;2262598;63;20200;-65
2021/12/10 07:25:52;;;;;;;5.55;2.92;;;20.40;44.40;;;;;;2262341;63;20250;-65
2021/12/10 07:28:18;;;;;;;5.88;2.92;;;20.40;44.30;;;;;;2262304;63;20226;-65
2021/12/10 07:30:47;;;;;;;4.80;2.45;;;20.40;44.30;;;;;;2262297;63;20176;-64
2021/12/10 07:33:13;;;;;;;7.93;2.80;;;20.50;45.00;;;;;;2262275;63;20168;-65
2021/12/10 07:35:39;;;;;;;5.00;2.55;;;20.40;44.40;;;;;;2262296;63;20217;-65
2021/12/10 07:38:06;;;;;;;3.38;2.50;;;20.50;44.40;;;;;;2263216;63;20305;-65
2021/12/10 07:40:33;;;;;;;4.45;3.20;;;20.50;45.10;;;;;;2262286;63;20642;-65
2021/12/10 07:42:59;;;;;;;3.83;2.40;;;20.50;44.40;;;;;;2262248;63;20168;-65
2021/12/10 07:45:27;;;;;;;5.05;2.53;;;20.50;45.10;;;;;;2262235;63;20597;-65
2021/12/10 07:47:54;;;;;;;5.68;2.70;;;20.50;44.50;;;;;;2262243;63;20168;-65
2021/12/10 07:50:28;;;;;;;3.63;2.40;;;20.50;44.50;;;;;;2262100;63;20655;-65
2021/12/10 07:52:56;;;;;;;5.65;2.80;;;20.50;44.60;;;;;;2262117;63;20766;-65
2021/12/10 07:55:25;;;;;;;4.20;2.42;;;20.50;44.60;;;;;;2262103;63;20836;-66
2021/12/10 07:57:52;;;;;;;4.88;2.55;;;20.50;44.60;;;;;;2262113;63;20607;-65
2021/12/10 08:00:22;;;;;;;5.30;2.70;;;20.50;44.70;;;;;;2262110;63;20168;-65
2021/12/10 08:02:48;;;;;;;5.75;2.70;;;20.50;44.80;;;;;;2262114;63;20656;-64
2021/12/10 08:05:16;;;;;;;3.47;2.47;;;20.50;44.80;;;;;;2262022;63;20196;-64
2021/12/10 08:07:42;;;;;;;5.55;2.70;;;20.50;44.90;;;;;;2262051;63;20192;-64
2021/12/10 08:10:11;;;;;;;6.80;2.70;;;20.50;44.90;;;;;;2261890;63;20263;-65
2021/12/10 08:12:36;;;;;;;4.10;2.42;;;20.50;44.90;;;;;;2262027;63;20855;-65
2021/12/10 08:15:04;;;;;;;4.80;2.53;;;20.50;44.90;;;;;;2261987;63;20251;-65
2021/12/10 08:17:29;;;;;;;5.85;2.28;;;20.50;44.90;;;;;;2262108;63;20332;-65
2021/12/10 08:19:55;;;;;;;4.07;2.55;;;20.50;44.90;;;;;;2262045;63;20199;-65
2021/12/10 08:22:21;;;;;;;4.88;2.90;;;20.40;45.00;;;;;;2262053;63;20152;-65
2021/12/10 08:24:47;;;;;;;5.20;2.60;;;20.40;45.00;;;;;;2261992;63;20271;-65
2021/12/10 08:27:14;;;;;;;5.65;2.75;;;20.40;45.00;;;;;;2262011;63;20180;-65
2021/12/10 08:29:42;;;;;;;6.15;2.58;;;20.40;45.30;;;;;;2262015;63;20179;-65
2021/12/10 08:32:12;;;;;;;9.02;2.70;;;20.30;45.00;;;;;;2261931;63;20176;-65
2021/12/10 08:34:38;;;;;;;4.72;2.63;;;20.30;45.10;;;;;;2261947;63;20205;-65
2021/12/10 08:37:05;;;;;;;4.88;2.70;;;20.30;45.20;;;;;;2262001;63;20635;-64
2021/12/10 08:39:31;;;;;;;8.35;2.75;;;20.20;45.20;;;;;;2261765;63;20204;-65
2021/12/10 08:41:58;;;;;;;7.30;2.55;;;20.20;45.30;;;;;;2261968;63;20204;-64
2021/12/10 08:44:28;;;;;;;6.63;3.08;;;20.20;45.40;;;;;;2261854;63;20195;-64
2021/12/10 08:46:55;;;;;;;5.80;2.80;;;20.20;45.40;;;;;;2261954;63;20178;-69
2021/12/10 08:49:21;;;;;;;7.32;2.22;;;20.10;45.40;;;;;;2261923;63;20179;-67
2021/12/10 08:51:51;;;;;;;4.68;2.42;;;20.10;45.50;;;;;;2261807;63;20305;-66
2021/12/10 08:54:22;;;;;;;4.32;2.50;;;20.10;45.50;;;;;;2261644;63;20617;-64
2021/12/10 08:56:48;;;;;;;5.68;2.72;;;20.00;45.60;;;;;;2261840;63;20219;-63
2021/12/10 08:59:14;;;;;;;5.30;2.30;;;20.00;45.60;;;;;;2261851;63;20172;-64
2021/12/10 09:01:45;;;;;;;5.18;2.30;;;20.00;45.70;;;;;;2261826;63;20225;-64
2021/12/10 09:04:12;;;;;;;3.28;2.22;;;19.90;46.40;;;;;;2261828;63;20186;-65
2021/12/10 09:06:42;;;;;;;7.35;2.45;;;19.90;45.80;;;;;;2261753;63;20164;-64
2021/12/10 09:09:11;;;;;;;5.13;2.30;;;19.90;45.80;;;;;;2261806;63;20748;-65
2021/12/10 09:11:40;;;;;;;5.05;2.92;;;19.90;45.90;;;;;;2261618;63;20196;-64
2021/12/10 09:14:07;;;;;;;5.22;2.88;;;19.80;45.90;;;;;;2261682;63;20184;-66
2021/12/10 09:16:36;;;;;;;5.25;2.53;;;19.80;45.90;;;;;;2261782;63;20250;-64
2021/12/10 09:19:06;;;;;;;5.13;2.45;;;19.80;45.90;;;;;;2262655;63;20277;-64
2021/12/10 09:21:34;;;;;;;3.10;2.30;;;19.80;45.90;;;;;;2263089;63;20278;-64
2021/12/10 09:24:04;;;;;;;3.80;2.10;;;19.80;45.90;;;;;;2263038;63;20179;-64
2021/12/10 09:26:34;;;;;;;5.20;2.47;;;19.80;45.90;;;;;;2263044;63;20192;-64
2021/12/10 09:29:02;;;;;;;5.72;2.78;;;19.80;45.90;;;;;;2263025;63;20281;-64
2021/12/10 09:31:29;;;;;;;3.72;2.40;;;19.70;45.90;;;;;;2262974;63;20168;-64
2021/12/10 09:33:56;;;;;;;3.83;2.60;;;19.70;45.90;;;;;;2263012;63;20168;-64
2021/12/10 09:36:23;;;;;;;10.88;2.88;;;19.70;46.00;;;;;;2262961;63;20177;-64
2021/12/10 09:38:50;;;;;;;7.43;2.58;;;19.70;46.10;;;;;;2262915;63;20163;-64
2021/12/10 09:41:17;;;;;;;7.45;2.78;;;19.60;46.00;;;;;;2262825;63;20198;-64
2021/12/10 09:43:43;;;;;;;5.95;2.60;;;19.60;46.10;;;;;;2262936;63;20164;-64
2021/12/10 09:46:11;;;;;;;5.30;2.30;;;19.60;46.20;;;;;;2262884;63;20269;-64
2021/12/10 09:48:41;;;;;;;5.85;2.25;;;19.60;46.20;;;;;;2262895;63;20167;-65
2021/12/10 09:51:22;;;;;;;5.43;2.50;;;19.60;46.30;;;;;;2262741;63;20409;-64
2021/12/10 09:53:51;;;;;;;4.20;1.98;;;19.60;46.40;;;;;;2262889;63;20320;-65
2021/12/10 09:56:17;;;;;;;5.15;2.63;;;19.60;46.50;;;;;;2262709;63;20223;-65
2021/12/10 09:58:43;;;;;;;4.10;2.70;;;19.50;46.50;;;;;;2262831;63;20554;-64
2021/12/10 10:01:14;;;;;;;5.05;2.80;;;19.50;46.60;;;;;;2262851;63;20231;-65
2021/12/10 10:03:43;;;;;;;3.28;2.53;;;19.50;46.60;;;;;;2262728;63;20188;-65
2021/12/10 10:06:11;;;;;;;3.70;2.30;;;19.50;46.70;;;;;;2262829;63;20254;-65
2021/12/10 10:08:38;;;;;;;2.75;2.30;;;19.50;46.80;;;;;;2262806;63;20329;-64
2021/12/10 10:11:15;;;;;;;5.65;3.08;;;19.50;46.80;;;;;;2262526;63;20159;-65
2021/12/10 10:13:51;;;;;;;4.03;2.13;;;19.50;46.90;;;;;;2262762;63;20309;-64
2021/12/10 10:16:18;;;;;;;5.90;2.20;;;19.50;46.90;;;;;;2262741;63;20286;-64
2021/12/10 10:18:45;;;;;;;5.13;2.42;;;19.50;47.00;;;;;;2262781;63;20164;-65
2021/12/10 10:21:23;;;;;;;3.65;2.30;;;19.50;47.00;;;;;;2262681;63;20327;-64
2021/12/10 10:23:49;;;;;;;4.05;2.40;;;19.50;47.00;;;;;;2262650;63;20180;-64
2021/12/10 10:26:20;;;;;;;4.15;2.60;;;19.40;47.00;;;;;;2262653;63;20168;-64
2021/12/10 10:28:48;;;;;;;4.82;2.60;;;19.50;47.00;;;;;;2262631;63;20196;-64
2021/12/10 10:31:18;;;;;;;5.43;2.55;;;19.40;47.00;;;;;;2262576;63;20160;-64
2021/12/10 10:33:48;;;;;;;3.42;2.28;;;19.40;47.10;;;;;;2262642;63;20716;-64
2021/12/10 10:36:22;;;;;;;4.95;2.75;;;19.50;47.20;;;;;;2262670;63;20290;-65
2021/12/10 10:38:59;;;;;;;3.97;2.22;;;19.40;47.20;;;;;;2262560;63;20434;-65
2021/12/10 10:41:27;;;;;;;5.90;2.50;;;19.40;47.20;;;;;;2262476;63;20765;-64
2021/12/10 10:43:54;;;;;;;6.05;2.33;;;19.40;47.20;;;;;;2262605;63;20270;-65
2021/12/10 10:46:20;;;;;;;5.07;2.17;;;19.40;47.20;;;;;;2262597;63;20180;-64
2021/12/10 10:48:48;;;;;;;3.70;1.92;;;19.40;47.30;;;;;;2262534;63;20159;-65
2021/12/10 10:51:26;;;;;;;3.00;2.30;;;19.40;47.20;;;;;;2262560;63;20619;-65
2021/12/10 10:53:54;;;;;;;5.32;2.20;;;19.40;47.20;;;;;;2262505;63;20168;-65
2021/12/10 10:56:44;;;;;;;6.88;2.63;;;19.40;47.20;;;;;;2262540;63;20164;-64
2021/12/10 10:59:17;;;;;;;5.60;2.40;;;19.40;47.00;;;;;;2262535;63;20301;-65
2021/12/10 11:02:02;;;;;;;4.78;2.30;;;19.40;47.00;;;;;;2262512;63;20287;-64
2021/12/10 11:04:33;;;;;;;7.93;2.80;;;19.40;47.00;;;;;;2262539;63;20201;-65
2021/12/10 11:07:15;;;;;;;6.15;3.47;;;19.40;47.10;;;;;;2262091;63;20444;-65
2021/12/10 11:09:49;;;;;;;7.30;3.17;;;19.30;47.20;;;;;;2262301;63;20862;-64
2021/12/10 11:12:21;;;;;;;8.15;3.33;;;19.30;47.20;;;;;;2262395;63;20389;-64
2021/12/10 11:14:50;;;;;;;3.85;3.03;;;19.30;47.30;;;;;;2262382;63;20802;-64
2021/12/10 11:17:40;;;;;;;6.13;3.15;;;19.30;47.50;;;;;;2262429;63;20297;-65
2021/12/10 11:20:42;;;;;;;4.95;2.42;;;19.30;47.60;;;;;;2262299;63;20186;-64
2021/12/10 11:23:10;;;;;;;5.75;2.80;;;19.30;47.40;;;;;;2221686;64;20643;-64
2021/12/10 11:25:41;;;;;;;6.85;2.72;;;19.30;47.50;;;;;;2221777;64;20421;-64
2021/12/10 11:28:12;;;;;;;4.97;2.60;;;19.30;47.50;;;;;;2221742;64;20316;-64
2021/12/10 11:31:05;;;;;;;5.65;2.78;;;19.30;47.50;;;;;;2221775;64;20249;-65
2021/12/10 11:33:37;;;;;;;10.20;3.30;;;19.30;48.10;;;;;;2221708;64;20230;-64
2021/12/10 11:36:11;;;;;;;7.18;2.90;;;19.30;47.60;;;;;;2221782;64;20308;-64
2021/12/10 11:38:39;;;;;;;6.45;2.90;;;19.30;47.50;;;;;;2221670;64;20202;-64
2021/12/10 11:41:08;;;;;;;6.90;2.83;;;19.30;48.10;;;;;;2213515;64;20648;-64
2021/12/10 11:44:06;;;;;;;4.95;2.38;;;19.30;47.60;;;;;;2221065;64;20171;-64
2021/12/10 11:46:44;;;;;;;4.75;2.40;;;19.30;47.60;;;;;;2221491;64;20183;-64
2021/12/10 11:49:33;;;;;;;8.25;2.78;;;19.40;47.60;;;;;;2221713;64;20151;-64
2021/12/10 11:52:05;;;;;;;4.18;2.38;;;19.40;47.60;;;;;;2221516;64;20707;-64
2021/12/10 11:54:45;;;;;;;5.75;2.80;;;19.40;47.60;;;;;;2221565;64;20171;-64
2021/12/10 11:57:15;;;;;;;4.60;2.53;;;19.40;47.60;;;;;;2221647;64;20238;-64
2021/12/10 11:59:46;;;;;;;5.22;2.45;;;19.40;47.60;;;;;;2245407;63;20208;-64
2021/12/10 12:02:22;;;;;;;5.45;2.40;;;19.40;47.60;;;;;;2262072;63;20252;-64
2021/12/10 12:04:52;;;;;;;5.05;2.03;;;19.40;47.60;;;;;;2262104;63;20156;-64
2021/12/10 12:07:30;;;;;;;4.18;1.95;;;19.40;47.50;;;;;;2262091;63;20227;-64
2021/12/10 12:09:58;;;;;;;4.05;1.98;;;19.40;47.50;;;;;;2261875;63;20594;-65
2021/12/10 12:12:29;;;;;;;3.90;2.03;;;19.40;47.60;;;;;;2262036;63;20337;-64
2021/12/10 12:15:32;;;;;;;3.22;2.13;;;19.40;47.60;;;;;;2261963;63;20253;-64
2021/12/10 12:18:02;;;;;;;4.97;2.22;;;19.40;47.50;;;;;;2221464;64;20324;-63
2021/12/10 12:20:38;;;;;;;3.63;1.88;;;19.40;48.20;;;;;;2221540;64;20178;-65
2021/12/10 12:26:21;;;;;;;5.03;2.13;;;19.40;47.50;;;;;;2221499;64;20233;-65
2021/12/10 12:28:51;;;;;;;3.50;2.20;;;19.40;47.50;;;;;;2221400;64;20209;-65
2021/12/10 12:31:20;;;;;;;4.38;2.30;;;19.50;47.50;;;;;;2221484;64;20316;-64
2021/12/10 12:33:57;;;;;;;4.82;2.10;;;19.40;47.40;;;;;;2221414;64;20171;-64
2021/12/10 12:36:32;;;;;;;3.20;1.90;;;19.40;47.30;;;;;;2221346;64;20180;-64
2021/12/10 12:38:58;;;;;;;5.85;2.25;;;19.40;47.30;;;;;;2221415;64;20298;-67
2021/12/10 12:41:31;;;;;;;8.35;2.42;;;19.40;47.50;;;;;;2221204;64;20798;-64
2021/12/10 12:44:16;;;;;;;8.25;2.90;;;19.40;47.50;;;;;;2221380;64;20179;-66
2021/12/10 12:47:05;;;;;;;3.40;2.30;;;19.40;47.60;;;;;;2221289;64;20175;-65
2021/12/10 12:49:52;;;;;;;3.88;2.28;;;19.40;47.70;;;;;;2221338;64;20250;-67
2021/12/10 12:52:23;;;;;;;4.65;2.28;;;19.40;47.70;;;;;;2221274;64;20159;-66
2021/12/10 12:55:13;;;;;;;8.07;2.50;;;19.40;47.60;;;;;;2263160;63;20183;-65
2021/12/10 12:57:59;;;;;;;6.63;2.67;;;19.40;47.60;;;;;;2263202;63;20171;-64
2021/12/10 13:00:30;;;;;;;5.40;2.33;;;19.40;47.60;;;;;;2263075;63;20250;-65
2021/12/10 13:03:09;;;;;;;6.57;2.67;;;19.40;47.70;;;;;;2263128;63;20309;-65
2021/12/10 13:05:43;;;;;;;4.35;2.28;;;19.40;47.60;;;;;;2263090;63;20222;-64
2021/12/10 13:08:13;;;;;;;5.78;2.38;;;19.40;47.60;;;;;;2263164;63;20302;-65
2021/12/10 13:10:42;;;;;;;3.70;2.42;;;19.40;47.60;;;;;;2262921;63;20215;-64
2021/12/10 13:13:15;;;;;;;5.20;2.50;;;19.40;47.60;;;;;;2263092;63;20175;-65